sensor_id;sensor_type;location;lat;lon;timestamp;temperature;humidity
12720;DHT22;6424;48.520;11.228;2022-10-16T00:02:16;13.70;99.90
12720;DHT22;6424;48.520;11.228;2022-10-16T00:04:57;13.70;99.90
12720;DHT22;6424;48.520;11.228;2022-10-16T00:07:38;13.70;99.90
12720;DHT22;6424;48.520;11.228;2022-10-16T00:10:18;13.70;99.90
12720;DHT22;6424;48.520;11.228;2022-10-16T00:12:59;13.70;99.90
12720;DHT22;6424;48.520;11.228;2022-10-16T00:15:26;13.80;99.90
12720;DHT22;6424;48.520;11.228;2022-10-16T00:18:06;13.80;99.90
12720;DHT22;6424;48.520;11.228;2022-10-16T00:20:47;13.80;99.90
12720;DHT22;6424;48.520;11.228;2022-10-16T00:23:28;13.80;99.90
12720;DHT22;6424;48.520;11.228;2022-10-16T00:26:12;13.70;99.90
12720;DHT22;6424;48.520;11.228;2022-10-16T00:28:53;13.70;99.90
12720;DHT22;6424;48.520;11.228;2022-10-16T00:31:34;13.60;99.90
12720;DHT22;6424;48.520;11.228;2022-10-16T00:34:15;13.60;99.90
12720;DHT22;6424;48.520;11.228;2022-10-16T00:36:56;13.50;99.90
12720;DHT22;6424;48.520;11.228;2022-10-16T00:39:37;13.50;99.90
12720;DHT22;6424;48.520;11.228;2022-10-16T00:42:18;13.40;99.90
12720;DHT22;6424;48.520;11.228;2022-10-16T00:44:59;13.40;99.90
12720;DHT22;6424;48.520;11.228;2022-10-16T00:47:42;13.40;99.90
12720;DHT22;6424;48.520;11.228;2022-10-16T00:50:31;13.40;99.90
12720;DHT22;6424;48.520;11.228;2022-10-16T00:53:13;13.40;99.90
12720;DHT22;6424;48.520;11.228;2022-10-16T00:55:55;13.40;99.90
12720;DHT22;6424;48.520;11.228;2022-10-16T00:58:36;13.40;99.90
12720;DHT22;6424;48.520;11.228;2022-10-16T01:01:17;13.50;99.90
12720;DHT22;6424;48.520;11.228;2022-10-16T01:03:57;13.40;99.90
12720;DHT22;6424;48.520;11.228;2022-10-16T01:12:45;13.50;99.90
12720;DHT22;6424;48.520;11.228;2022-10-16T01:15:47;13.50;99.90
12720;DHT22;6424;48.520;11.228;2022-10-16T01:21:18;13.50;99.90
12720;DHT22;6424;48.520;11.228;2022-10-16T01:24:33;13.50;99.90
12720;DHT22;6424;48.520;11.228;2022-10-16T01:27:30;13.50;99.90
12720;DHT22;6424;48.520;11.228;2022-10-16T01:30:21;13.50;99.90
12720;DHT22;6424;48.520;11.228;2022-10-16T01:33:24;13.50;99.90
12720;DHT22;6424;48.520;11.228;2022-10-16T01:36:12;13.50;99.90
12720;DHT22;6424;48.520;11.228;2022-10-16T01:38:56;13.50;99.90
12720;DHT22;6424;48.520;11.228;2022-10-16T01:41:34;13.50;99.90
12720;DHT22;6424;48.520;11.228;2022-10-16T01:44:04;13.50;99.90
12720;DHT22;6424;48.520;11.228;2022-10-16T01:46:48;13.50;99.90
12720;DHT22;6424;48.520;11.228;2022-10-16T01:49:32;13.40;99.90
12720;DHT22;6424;48.520;11.228;2022-10-16T01:52:18;13.40;99.90
12720;DHT22;6424;48.520;11.228;2022-10-16T01:55:03;13.40;99.90
12720;DHT22;6424;48.520;11.228;2022-10-16T01:57:48;13.30;99.90
12720;DHT22;6424;48.520;11.228;2022-10-16T02:00:34;13.30;99.90
12720;DHT22;6424;48.520;11.228;2022-10-16T02:03:18;13.20;99.90
12720;DHT22;6424;48.520;11.228;2022-10-16T02:05:56;13.20;99.90
12720;DHT22;6424;48.520;11.228;2022-10-16T02:08:38;13.10;99.90
12720;DHT22;6424;48.520;11.228;2022-10-16T02:11:20;13.00;99.90
12720;DHT22;6424;48.520;11.228;2022-10-16T02:14:04;13.00;99.90
12720;DHT22;6424;48.520;11.228;2022-10-16T02:16:46;12.90;99.90
12720;DHT22;6424;48.520;11.228;2022-10-16T02:19:27;12.90;99.90
12720;DHT22;6424;48.520;11.228;2022-10-16T02:22:11;12.90;99.90
12720;DHT22;6424;48.520;11.228;2022-10-16T02:28:19;12.70;99.90
12720;DHT22;6424;48.520;11.228;2022-10-16T02:31:09;12.60;99.90
12720;DHT22;6424;48.520;11.228;2022-10-16T02:33:53;12.60;99.90
12720;DHT22;6424;48.520;11.228;2022-10-16T02:36:36;12.60;99.90
12720;DHT22;6424;48.520;11.228;2022-10-16T02:39:18;12.60;99.90
12720;DHT22;6424;48.520;11.228;2022-10-16T02:42:00;12.60;99.90
12720;DHT22;6424;48.520;11.228;2022-10-16T02:44:41;12.60;99.90
12720;DHT22;6424;48.520;11.228;2022-10-16T02:47:22;12.70;99.90
12720;DHT22;6424;48.520;11.228;2022-10-16T02:49:47;12.70;99.90
12720;DHT22;6424;48.520;11.228;2022-10-16T02:52:28;12.80;99.90
12720;DHT22;6424;48.520;11.228;2022-10-16T02:55:09;12.80;99.90
12720;DHT22;6424;48.520;11.228;2022-10-16T02:57:50;12.90;99.90
12720;DHT22;6424;48.520;11.228;2022-10-16T03:00:31;12.90;99.90
12720;DHT22;6424;48.520;11.228;2022-10-16T03:03:12;12.90;99.90
12720;DHT22;6424;48.520;11.228;2022-10-16T03:05:52;12.90;99.90
12720;DHT22;6424;48.520;11.228;2022-10-16T03:08:33;13.00;99.90
12720;DHT22;6424;48.520;11.228;2022-10-16T03:11:14;13.00;99.90
12720;DHT22;6424;48.520;11.228;2022-10-16T03:13:55;13.00;99.90
12720;DHT22;6424;48.520;11.228;2022-10-16T03:16:21;13.00;99.90
12720;DHT22;6424;48.520;11.228;2022-10-16T03:19:01;13.00;99.90
12720;DHT22;6424;48.520;11.228;2022-10-16T03:21:42;13.00;99.90
12720;DHT22;6424;48.520;11.228;2022-10-16T03:24:23;13.00;99.90
12720;DHT22;6424;48.520;11.228;2022-10-16T03:27:04;13.00;99.90
12720;DHT22;6424;48.520;11.228;2022-10-16T03:29:45;13.00;99.90
12720;DHT22;6424;48.520;11.228;2022-10-16T03:32:26;13.00;99.90
12720;DHT22;6424;48.520;11.228;2022-10-16T03:35:08;13.00;99.90
12720;DHT22;6424;48.520;11.228;2022-10-16T03:37:50;13.00;99.90
12720;DHT22;6424;48.520;11.228;2022-10-16T03:40:31;13.00;99.90
12720;DHT22;6424;48.520;11.228;2022-10-16T03:43:12;13.00;99.90
12720;DHT22;6424;48.520;11.228;2022-10-16T03:45:53;13.00;99.90
12720;DHT22;6424;48.520;11.228;2022-10-16T03:48:34;13.00;99.90
12720;DHT22;6424;48.520;11.228;2022-10-16T03:51:15;13.00;99.90
12720;DHT22;6424;48.520;11.228;2022-10-16T03:53:56;13.00;99.90
12720;DHT22;6424;48.520;11.228;2022-10-16T03:56:37;13.00;99.90
12720;DHT22;6424;48.520;11.228;2022-10-16T03:59:17;13.00;99.90
12720;DHT22;6424;48.520;11.228;2022-10-16T04:01:58;13.10;99.90
12720;DHT22;6424;48.520;11.228;2022-10-16T04:04:39;13.10;99.90
12720;DHT22;6424;48.520;11.228;2022-10-16T04:07:20;13.20;99.90
12720;DHT22;6424;48.520;11.228;2022-10-16T04:10:01;13.20;99.90
12720;DHT22;6424;48.520;11.228;2022-10-16T04:12:41;13.30;99.90
12720;DHT22;6424;48.520;11.228;2022-10-16T04:15:26;13.30;99.90
12720;DHT22;6424;48.520;11.228;2022-10-16T04:18:07;13.30;99.90
12720;DHT22;6424;48.520;11.228;2022-10-16T04:20:33;13.30;99.90
12720;DHT22;6424;48.520;11.228;2022-10-16T04:23:14;13.30;99.90
12720;DHT22;6424;48.520;11.228;2022-10-16T04:25:55;13.30;99.90
12720;DHT22;6424;48.520;11.228;2022-10-16T04:28:36;13.30;99.90
12720;DHT22;6424;48.520;11.228;2022-10-16T04:31:05;13.40;99.90
12720;DHT22;6424;48.520;11.228;2022-10-16T04:33:31;13.30;99.90
12720;DHT22;6424;48.520;11.228;2022-10-16T04:36:13;13.30;99.90
12720;DHT22;6424;48.520;11.228;2022-10-16T04:38:54;13.30;99.90
12720;DHT22;6424;48.520;11.228;2022-10-16T04:41:34;13.30;99.90
12720;DHT22;6424;48.520;11.228;2022-10-16T04:44:15;13.30;99.90
12720;DHT22;6424;48.520;11.228;2022-10-16T04:46:56;13.30;99.90
12720;DHT22;6424;48.520;11.228;2022-10-16T04:49:37;13.30;99.90
12720;DHT22;6424;48.520;11.228;2022-10-16T04:52:03;13.30;99.90
12720;DHT22;6424;48.520;11.228;2022-10-16T04:54:44;13.30;99.90
12720;DHT22;6424;48.520;11.228;2022-10-16T04:57:25;13.30;99.90
12720;DHT22;6424;48.520;11.228;2022-10-16T05:00:07;13.30;99.90
12720;DHT22;6424;48.520;11.228;2022-10-16T05:02:52;13.30;99.90
12720;DHT22;6424;48.520;11.228;2022-10-16T05:05:33;13.30;99.90
12720;DHT22;6424;48.520;11.228;2022-10-16T05:08:15;13.20;99.90
12720;DHT22;6424;48.520;11.228;2022-10-16T05:10:56;13.20;99.90
12720;DHT22;6424;48.520;11.228;2022-10-16T05:13:37;13.20;99.90
12720;DHT22;6424;48.520;11.228;2022-10-16T05:16:18;13.30;99.90
12720;DHT22;6424;48.520;11.228;2022-10-16T05:18:59;13.30;99.90
12720;DHT22;6424;48.520;11.228;2022-10-16T05:21:24;13.30;99.90
12720;DHT22;6424;48.520;11.228;2022-10-16T05:24:05;13.20;99.90
12720;DHT22;6424;48.520;11.228;2022-10-16T05:26:31;13.20;99.90
12720;DHT22;6424;48.520;11.228;2022-10-16T05:29:12;13.20;99.90
12720;DHT22;6424;48.520;11.228;2022-10-16T05:31:38;13.20;99.90
12720;DHT22;6424;48.520;11.228;2022-10-16T05:34:19;13.20;99.90
12720;DHT22;6424;48.520;11.228;2022-10-16T05:37:00;13.10;99.90
12720;DHT22;6424;48.520;11.228;2022-10-16T05:39:26;13.10;99.90
12720;DHT22;6424;48.520;11.228;2022-10-16T05:42:07;13.00;99.90
12720;DHT22;6424;48.520;11.228;2022-10-16T05:44:33;13.00;99.90
12720;DHT22;6424;48.520;11.228;2022-10-16T05:47:13;12.90;99.90
12720;DHT22;6424;48.520;11.228;2022-10-16T05:49:40;12.90;99.90
12720;DHT22;6424;48.520;11.228;2022-10-16T05:52:20;12.90;99.90
12720;DHT22;6424;48.520;11.228;2022-10-16T05:55:02;12.90;99.90
12720;DHT22;6424;48.520;11.228;2022-10-16T05:57:28;12.80;99.90
12720;DHT22;6424;48.520;11.228;2022-10-16T06:00:09;12.80;99.90
12720;DHT22;6424;48.520;11.228;2022-10-16T06:02:50;12.80;99.90
12720;DHT22;6424;48.520;11.228;2022-10-16T06:05:31;12.80;99.90
12720;DHT22;6424;48.520;11.228;2022-10-16T06:08:12;12.90;99.90
12720;DHT22;6424;48.520;11.228;2022-10-16T06:11:03;12.90;99.90
12720;DHT22;6424;48.520;11.228;2022-10-16T06:13:45;12.90;99.90
12720;DHT22;6424;48.520;11.228;2022-10-16T06:16:29;12.90;99.90
12720;DHT22;6424;48.520;11.228;2022-10-16T06:19:10;13.00;99.90
12720;DHT22;6424;48.520;11.228;2022-10-16T06:21:51;13.00;99.90
12720;DHT22;6424;48.520;11.228;2022-10-16T06:24:31;13.10;99.90
12720;DHT22;6424;48.520;11.228;2022-10-16T06:27:12;13.20;99.90
12720;DHT22;6424;48.520;11.228;2022-10-16T06:29:53;13.30;99.90
12720;DHT22;6424;48.520;11.228;2022-10-16T06:32:34;13.50;99.90
12720;DHT22;6424;48.520;11.228;2022-10-16T06:35:15;13.70;99.90
12720;DHT22;6424;48.520;11.228;2022-10-16T06:37:56;13.80;99.90
12720;DHT22;6424;48.520;11.228;2022-10-16T06:40:37;14.00;99.90
12720;DHT22;6424;48.520;11.228;2022-10-16T06:43:18;14.10;99.90
12720;DHT22;6424;48.520;11.228;2022-10-16T06:46:00;14.20;99.90
12720;DHT22;6424;48.520;11.228;2022-10-16T06:48:41;14.30;99.90
12720;DHT22;6424;48.520;11.228;2022-10-16T06:51:23;14.40;99.90
12720;DHT22;6424;48.520;11.228;2022-10-16T06:53:51;14.50;99.90
12720;DHT22;6424;48.520;11.228;2022-10-16T06:56:33;14.70;99.90
12720;DHT22;6424;48.520;11.228;2022-10-16T06:59:14;15.10;99.90
12720;DHT22;6424;48.520;11.228;2022-10-16T07:01:55;15.70;99.90
12720;DHT22;6424;48.520;11.228;2022-10-16T07:04:36;16.10;99.90
12720;DHT22;6424;48.520;11.228;2022-10-16T07:07:17;16.60;99.90
12720;DHT22;6424;48.520;11.228;2022-10-16T07:09:58;17.00;99.90
12720;DHT22;6424;48.520;11.228;2022-10-16T07:12:38;17.40;99.90
12720;DHT22;6424;48.520;11.228;2022-10-16T07:15:19;17.70;99.90
12720;DHT22;6424;48.520;11.228;2022-10-16T07:18:00;18.00;99.90
12720;DHT22;6424;48.520;11.228;2022-10-16T07:20:41;18.10;99.90
12720;DHT22;6424;48.520;11.228;2022-10-16T07:23:21;18.00;99.90
12720;DHT22;6424;48.520;11.228;2022-10-16T07:26:03;17.90;99.90
12720;DHT22;6424;48.520;11.228;2022-10-16T07:28:44;17.60;99.90
12720;DHT22;6424;48.520;11.228;2022-10-16T07:31:25;17.50;99.90
12720;DHT22;6424;48.520;11.228;2022-10-16T07:34:06;17.50;99.90
12720;DHT22;6424;48.520;11.228;2022-10-16T07:36:51;17.60;99.90
12720;DHT22;6424;48.520;11.228;2022-10-16T07:39:17;17.80;99.90
12720;DHT22;6424;48.520;11.228;2022-10-16T07:41:58;18.00;99.90
12720;DHT22;6424;48.520;11.228;2022-10-16T07:44:39;18.20;99.90
12720;DHT22;6424;48.520;11.228;2022-10-16T07:47:20;18.30;99.90
12720;DHT22;6424;48.520;11.228;2022-10-16T07:50:01;18.50;99.90
12720;DHT22;6424;48.520;11.228;2022-10-16T07:52:42;18.70;99.90
12720;DHT22;6424;48.520;11.228;2022-10-16T07:55:08;18.90;99.90
12720;DHT22;6424;48.520;11.228;2022-10-16T07:57:49;19.00;99.90
12720;DHT22;6424;48.520;11.228;2022-10-16T08:00:30;19.10;99.90
12720;DHT22;6424;48.520;11.228;2022-10-16T08:03:10;19.30;99.90
12720;DHT22;6424;48.520;11.228;2022-10-16T08:05:51;19.40;99.90
12720;DHT22;6424;48.520;11.228;2022-10-16T08:08:32;19.40;99.90
12720;DHT22;6424;48.520;11.228;2022-10-16T08:11:13;19.50;99.90
12720;DHT22;6424;48.520;11.228;2022-10-16T08:13:55;19.40;99.90
12720;DHT22;6424;48.520;11.228;2022-10-16T08:16:36;19.20;99.90
12720;DHT22;6424;48.520;11.228;2022-10-16T08:19:16;19.10;99.90
12720;DHT22;6424;48.520;11.228;2022-10-16T08:21:57;18.90;99.90
12720;DHT22;6424;48.520;11.228;2022-10-16T08:24:38;18.80;99.90
12720;DHT22;6424;48.520;11.228;2022-10-16T08:27:19;18.60;99.90
12720;DHT22;6424;48.520;11.228;2022-10-16T08:30:00;18.50;99.90
12720;DHT22;6424;48.520;11.228;2022-10-16T08:32:41;18.40;99.90
12720;DHT22;6424;48.520;11.228;2022-10-16T08:35:22;18.30;99.90
12720;DHT22;6424;48.520;11.228;2022-10-16T08:38:04;18.30;99.90
12720;DHT22;6424;48.520;11.228;2022-10-16T08:40:45;18.40;99.90
12720;DHT22;6424;48.520;11.228;2022-10-16T08:46:55;18.50;99.90
12720;DHT22;6424;48.520;11.228;2022-10-16T08:49:22;18.50;99.90
12720;DHT22;6424;48.520;11.228;2022-10-16T08:52:11;18.60;99.90
12720;DHT22;6424;48.520;11.228;2022-10-16T08:54:55;18.70;99.90
12720;DHT22;6424;48.520;11.228;2022-10-16T08:57:36;18.90;99.90
12720;DHT22;6424;48.520;11.228;2022-10-16T09:00:17;19.00;99.90
12720;DHT22;6424;48.520;11.228;2022-10-16T09:03:42;19.20;99.90
12720;DHT22;6424;48.520;11.228;2022-10-16T09:09:04;19.80;99.90
12720;DHT22;6424;48.520;11.228;2022-10-16T09:23:30;21.40;99.90
12720;DHT22;6424;48.520;11.228;2022-10-16T09:26:12;21.60;99.90
12720;DHT22;6424;48.520;11.228;2022-10-16T09:28:54;21.80;99.90
12720;DHT22;6424;48.520;11.228;2022-10-16T09:31:36;21.80;99.90
12720;DHT22;6424;48.520;11.228;2022-10-16T09:34:34;21.70;99.90
12720;DHT22;6424;48.520;11.228;2022-10-16T09:37:18;21.60;99.90
12720;DHT22;6424;48.520;11.228;2022-10-16T09:39:59;21.50;99.90
12720;DHT22;6424;48.520;11.228;2022-10-16T09:42:40;21.50;99.90
12720;DHT22;6424;48.520;11.228;2022-10-16T09:45:23;21.40;99.90
12720;DHT22;6424;48.520;11.228;2022-10-16T09:47:49;21.40;99.90
12720;DHT22;6424;48.520;11.228;2022-10-16T09:50:25;21.40;99.90
12720;DHT22;6424;48.520;11.228;2022-10-16T09:53:14;21.50;99.90
12720;DHT22;6424;48.520;11.228;2022-10-16T09:55:55;21.60;99.90
12720;DHT22;6424;48.520;11.228;2022-10-16T09:58:36;21.70;99.90
12720;DHT22;6424;48.520;11.228;2022-10-16T10:01:19;21.80;99.90
12720;DHT22;6424;48.520;11.228;2022-10-16T10:04:00;21.90;99.90
12720;DHT22;6424;48.520;11.228;2022-10-16T10:06:54;21.90;99.90
12720;DHT22;6424;48.520;11.228;2022-10-16T10:09:39;22.00;99.90
12720;DHT22;6424;48.520;11.228;2022-10-16T10:12:24;22.00;99.90
12720;DHT22;6424;48.520;11.228;2022-10-16T10:15:10;22.00;99.90
12720;DHT22;6424;48.520;11.228;2022-10-16T10:17:56;22.00;99.90
12720;DHT22;6424;48.520;11.228;2022-10-16T10:20:37;22.00;99.90
12720;DHT22;6424;48.520;11.228;2022-10-16T10:23:20;22.00;99.90
12720;DHT22;6424;48.520;11.228;2022-10-16T10:26:12;22.00;99.90
12720;DHT22;6424;48.520;11.228;2022-10-16T10:29:04;22.10;99.90
12720;DHT22;6424;48.520;11.228;2022-10-16T10:43:25;21.90;99.90
12720;DHT22;6424;48.520;11.228;2022-10-16T10:46:18;21.90;99.90
12720;DHT22;6424;48.520;11.228;2022-10-16T10:54:54;22.00;99.90
12720;DHT22;6424;48.520;11.228;2022-10-16T11:01:04;22.20;99.90
12720;DHT22;6424;48.520;11.228;2022-10-16T11:07:05;22.50;99.90
12720;DHT22;6424;48.520;11.228;2022-10-16T11:09:47;22.50;99.90
12720;DHT22;6424;48.520;11.228;2022-10-16T11:12:36;22.60;99.90
12720;DHT22;6424;48.520;11.228;2022-10-16T11:15:28;22.50;99.90
12720;DHT22;6424;48.520;11.228;2022-10-16T11:18:21;22.60;99.90
12720;DHT22;6424;48.520;11.228;2022-10-16T11:21:07;22.70;99.90
12720;DHT22;6424;48.520;11.228;2022-10-16T11:23:57;22.80;99.90
12720;DHT22;6424;48.520;11.228;2022-10-16T11:26:43;22.80;99.90
12720;DHT22;6424;48.520;11.228;2022-10-16T11:29:29;22.70;99.90
12720;DHT22;6424;48.520;11.228;2022-10-16T11:32:20;22.60;99.90
12720;DHT22;6424;48.520;11.228;2022-10-16T11:34:51;22.50;99.90
12720;DHT22;6424;48.520;11.228;2022-10-16T11:37:40;22.40;99.90
12720;DHT22;6424;48.520;11.228;2022-10-16T11:40:33;22.30;99.90
12720;DHT22;6424;48.520;11.228;2022-10-16T11:43:38;22.30;99.90
12720;DHT22;6424;48.520;11.228;2022-10-16T11:46:24;22.30;99.90
12720;DHT22;6424;48.520;11.228;2022-10-16T11:49:36;22.30;99.90
12720;DHT22;6424;48.520;11.228;2022-10-16T11:52:27;22.30;99.90
12720;DHT22;6424;48.520;11.228;2022-10-16T11:57:34;22.50;99.90
12720;DHT22;6424;48.520;11.228;2022-10-16T12:09:28;22.90;99.90
12720;DHT22;6424;48.520;11.228;2022-10-16T12:15:22;22.80;99.90
12720;DHT22;6424;48.520;11.228;2022-10-16T12:18:04;22.80;99.90
12720;DHT22;6424;48.520;11.228;2022-10-16T12:20:57;22.80;99.90
12720;DHT22;6424;48.520;11.228;2022-10-16T12:23:55;22.70;99.90
12720;DHT22;6424;48.520;11.228;2022-10-16T12:26:39;22.70;99.90
12720;DHT22;6424;48.520;11.228;2022-10-16T12:29:39;22.70;99.90
12720;DHT22;6424;48.520;11.228;2022-10-16T12:32:34;22.70;99.90
12720;DHT22;6424;48.520;11.228;2022-10-16T12:35:27;22.70;99.90
12720;DHT22;6424;48.520;11.228;2022-10-16T12:38:22;22.70;99.90
12720;DHT22;6424;48.520;11.228;2022-10-16T12:41:00;22.70;99.90
12720;DHT22;6424;48.520;11.228;2022-10-16T12:43:43;22.80;99.90
12720;DHT22;6424;48.520;11.228;2022-10-16T12:51:55;22.90;99.90
12720;DHT22;6424;48.520;11.228;2022-10-16T12:54:37;22.90;99.90
12720;DHT22;6424;48.520;11.228;2022-10-16T12:58:20;22.80;99.90
12720;DHT22;6424;48.520;11.228;2022-10-16T13:00:40;22.80;99.90
12720;DHT22;6424;48.520;11.228;2022-10-16T13:06:43;22.90;99.90
12720;DHT22;6424;48.520;11.228;2022-10-16T13:12:15;22.90;99.90
12720;DHT22;6424;48.520;11.228;2022-10-16T13:18:12;22.80;99.90
12720;DHT22;6424;48.520;11.228;2022-10-16T13:24:38;22.70;99.90
12720;DHT22;6424;48.520;11.228;2022-10-16T13:30:29;22.60;99.90
12720;DHT22;6424;48.520;11.228;2022-10-16T13:50:23;22.60;99.90
12720;DHT22;6424;48.520;11.228;2022-10-16T13:53:12;22.50;99.90
12720;DHT22;6424;48.520;11.228;2022-10-16T13:55:39;22.50;99.90
12720;DHT22;6424;48.520;11.228;2022-10-16T13:58:20;22.40;99.90
12720;DHT22;6424;48.520;11.228;2022-10-16T14:01:05;22.30;99.90
12720;DHT22;6424;48.520;11.228;2022-10-16T14:04:04;22.20;99.90
12720;DHT22;6424;48.520;11.228;2022-10-16T14:06:31;22.20;99.90
12720;DHT22;6424;48.520;11.228;2022-10-16T14:09:14;22.20;99.90
12720;DHT22;6424;48.520;11.228;2022-10-16T14:12:01;22.20;99.60
12720;DHT22;6424;48.520;11.228;2022-10-16T14:14:48;22.30;99.90
12720;DHT22;6424;48.520;11.228;2022-10-16T14:17:32;22.20;98.80
12720;DHT22;6424;48.520;11.228;2022-10-16T14:20:15;22.20;99.90
12720;DHT22;6424;48.520;11.228;2022-10-16T14:23:19;22.10;99.90
12720;DHT22;6424;48.520;11.228;2022-10-16T14:29:10;22.00;99.90
12720;DHT22;6424;48.520;11.228;2022-10-16T14:32:03;22.00;99.90
12720;DHT22;6424;48.520;11.228;2022-10-16T14:34:53;21.90;99.90
12720;DHT22;6424;48.520;11.228;2022-10-16T14:37:34;21.80;99.90
12720;DHT22;6424;48.520;11.228;2022-10-16T14:40:15;21.80;99.90
12720;DHT22;6424;48.520;11.228;2022-10-16T14:42:57;21.70;99.90
12720;DHT22;6424;48.520;11.228;2022-10-16T14:45:39;21.70;99.90
12720;DHT22;6424;48.520;11.228;2022-10-16T14:48:22;21.60;99.90
12720;DHT22;6424;48.520;11.228;2022-10-16T14:51:07;21.50;99.90
12720;DHT22;6424;48.520;11.228;2022-10-16T14:53:49;21.50;99.90
12720;DHT22;6424;48.520;11.228;2022-10-16T14:59:40;21.40;99.90
12720;DHT22;6424;48.520;11.228;2022-10-16T15:02:32;21.40;99.90
12720;DHT22;6424;48.520;11.228;2022-10-16T15:05:24;21.30;99.90
12720;DHT22;6424;48.520;11.228;2022-10-16T15:08:06;21.30;99.90
12720;DHT22;6424;48.520;11.228;2022-10-16T15:10:47;21.30;99.90
12720;DHT22;6424;48.520;11.228;2022-10-16T15:13:28;21.30;99.90
12720;DHT22;6424;48.520;11.228;2022-10-16T15:16:14;21.20;99.90
12720;DHT22;6424;48.520;11.228;2022-10-16T15:18:55;21.10;99.90
12720;DHT22;6424;48.520;11.228;2022-10-16T15:21:36;21.10;99.90
12720;DHT22;6424;48.520;11.228;2022-10-16T15:24:02;21.10;99.90
12720;DHT22;6424;48.520;11.228;2022-10-16T15:26:43;21.10;99.90
12720;DHT22;6424;48.520;11.228;2022-10-16T15:29:26;21.10;99.90
12720;DHT22;6424;48.520;11.228;2022-10-16T15:32:09;21.00;99.90
12720;DHT22;6424;48.520;11.228;2022-10-16T15:34:50;20.90;99.90
12720;DHT22;6424;48.520;11.228;2022-10-16T15:37:31;20.80;99.90
12720;DHT22;6424;48.520;11.228;2022-10-16T15:40:12;20.70;99.90
12720;DHT22;6424;48.520;11.228;2022-10-16T15:42:52;20.60;99.90
12720;DHT22;6424;48.520;11.228;2022-10-16T15:45:33;20.50;99.90
12720;DHT22;6424;48.520;11.228;2022-10-16T15:48:14;20.40;99.90
12720;DHT22;6424;48.520;11.228;2022-10-16T15:50:55;20.30;99.90
12720;DHT22;6424;48.520;11.228;2022-10-16T15:53:36;20.20;99.90
12720;DHT22;6424;48.520;11.228;2022-10-16T15:56:17;20.00;99.90
12720;DHT22;6424;48.520;11.228;2022-10-16T15:58:58;19.90;99.90
12720;DHT22;6424;48.520;11.228;2022-10-16T16:01:39;19.80;99.90
12720;DHT22;6424;48.520;11.228;2022-10-16T16:04:20;19.70;99.90
12720;DHT22;6424;48.520;11.228;2022-10-16T16:07:00;19.50;99.90
12720;DHT22;6424;48.520;11.228;2022-10-16T16:09:42;19.40;99.90
12720;DHT22;6424;48.520;11.228;2022-10-16T16:12:24;19.30;99.90
12720;DHT22;6424;48.520;11.228;2022-10-16T16:15:06;19.10;99.90
12720;DHT22;6424;48.520;11.228;2022-10-16T16:17:48;19.00;99.90
12720;DHT22;6424;48.520;11.228;2022-10-16T16:20:29;18.80;99.90
12720;DHT22;6424;48.520;11.228;2022-10-16T16:23:10;18.70;99.90
12720;DHT22;6424;48.520;11.228;2022-10-16T16:25:36;18.60;99.90
12720;DHT22;6424;48.520;11.228;2022-10-16T16:28:17;18.50;99.90
12720;DHT22;6424;48.520;11.228;2022-10-16T16:30:58;18.30;99.90
12720;DHT22;6424;48.520;11.228;2022-10-16T16:33:39;18.20;99.90
12720;DHT22;6424;48.520;11.228;2022-10-16T16:36:05;18.10;99.90
12720;DHT22;6424;48.520;11.228;2022-10-16T16:38:46;18.00;99.90
12720;DHT22;6424;48.520;11.228;2022-10-16T16:41:17;17.90;99.90
12720;DHT22;6424;48.520;11.228;2022-10-16T16:44:05;17.90;99.90
12720;DHT22;6424;48.520;11.228;2022-10-16T16:46:46;17.80;99.90
12720;DHT22;6424;48.520;11.228;2022-10-16T16:49:27;17.70;99.90
12720;DHT22;6424;48.520;11.228;2022-10-16T16:52:07;17.60;99.90
12720;DHT22;6424;48.520;11.228;2022-10-16T16:54:48;17.50;99.90
12720;DHT22;6424;48.520;11.228;2022-10-16T16:57:32;17.40;99.90
12720;DHT22;6424;48.520;11.228;2022-10-16T17:00:13;17.30;99.90
12720;DHT22;6424;48.520;11.228;2022-10-16T17:02:54;17.30;99.90
12720;DHT22;6424;48.520;11.228;2022-10-16T17:05:19;17.20;99.90
12720;DHT22;6424;48.520;11.228;2022-10-16T17:08:00;17.10;99.90
12720;DHT22;6424;48.520;11.228;2022-10-16T17:10:44;17.10;99.90
12720;DHT22;6424;48.520;11.228;2022-10-16T17:13:29;17.00;99.90
12720;DHT22;6424;48.520;11.228;2022-10-16T17:16:10;17.00;99.90
12720;DHT22;6424;48.520;11.228;2022-10-16T17:18:51;17.00;99.90
12720;DHT22;6424;48.520;11.228;2022-10-16T17:21:34;17.00;99.90
12720;DHT22;6424;48.520;11.228;2022-10-16T17:24:15;16.90;99.90
12720;DHT22;6424;48.520;11.228;2022-10-16T17:26:58;16.90;99.90
12720;DHT22;6424;48.520;11.228;2022-10-16T17:29:38;16.90;99.90
12720;DHT22;6424;48.520;11.228;2022-10-16T17:32:19;16.90;99.90
12720;DHT22;6424;48.520;11.228;2022-10-16T17:35:01;16.90;99.90
12720;DHT22;6424;48.520;11.228;2022-10-16T17:37:42;16.90;99.90
12720;DHT22;6424;48.520;11.228;2022-10-16T17:40:24;16.90;99.90
12720;DHT22;6424;48.520;11.228;2022-10-16T17:43:05;16.80;99.90
12720;DHT22;6424;48.520;11.228;2022-10-16T17:45:47;16.80;99.90
12720;DHT22;6424;48.520;11.228;2022-10-16T17:48:28;16.70;99.90
12720;DHT22;6424;48.520;11.228;2022-10-16T17:50:54;16.70;99.90
12720;DHT22;6424;48.520;11.228;2022-10-16T17:53:36;16.70;99.90
12720;DHT22;6424;48.520;11.228;2022-10-16T17:56:17;16.70;99.90
12720;DHT22;6424;48.520;11.228;2022-10-16T17:59:00;16.60;99.90
12720;DHT22;6424;48.520;11.228;2022-10-16T18:01:41;16.60;99.90
12720;DHT22;6424;48.520;11.228;2022-10-16T18:04:24;16.70;99.90
12720;DHT22;6424;48.520;11.228;2022-10-16T18:07:05;16.70;99.90
12720;DHT22;6424;48.520;11.228;2022-10-16T18:09:31;16.80;99.90
12720;DHT22;6424;48.520;11.228;2022-10-16T18:12:12;16.90;99.90
12720;DHT22;6424;48.520;11.228;2022-10-16T18:14:39;16.90;99.90
12720;DHT22;6424;48.520;11.228;2022-10-16T18:17:20;16.90;99.90
12720;DHT22;6424;48.520;11.228;2022-10-16T18:20:01;16.80;99.90
12720;DHT22;6424;48.520;11.228;2022-10-16T18:22:42;16.70;99.90
12720;DHT22;6424;48.520;11.228;2022-10-16T18:25:08;16.60;99.90
12720;DHT22;6424;48.520;11.228;2022-10-16T18:27:49;16.50;99.90
12720;DHT22;6424;48.520;11.228;2022-10-16T18:30:15;16.40;99.90
12720;DHT22;6424;48.520;11.228;2022-10-16T18:32:55;16.40;99.90
12720;DHT22;6424;48.520;11.228;2022-10-16T18:35:36;16.30;99.90
12720;DHT22;6424;48.520;11.228;2022-10-16T18:38:19;16.20;99.90
12720;DHT22;6424;48.520;11.228;2022-10-16T18:41:00;16.20;99.90
12720;DHT22;6424;48.520;11.228;2022-10-16T18:43:45;16.20;99.90
12720;DHT22;6424;48.520;11.228;2022-10-16T18:46:27;16.20;99.90
12720;DHT22;6424;48.520;11.228;2022-10-16T18:49:08;16.20;99.90
12720;DHT22;6424;48.520;11.228;2022-10-16T18:51:49;16.10;99.90
12720;DHT22;6424;48.520;11.228;2022-10-16T18:54:35;16.10;99.90
12720;DHT22;6424;48.520;11.228;2022-10-16T18:57:17;16.10;99.90